createdAt,value
2023-03-06T00:01:02.672Z,0.20
2023-03-06T00:03:30.621Z,0.20
2023-03-06T00:06:35.725Z,0.20
2023-03-06T00:09:22.543Z,0.20
2023-03-06T00:11:50.836Z,0.20
2023-03-06T00:14:20.368Z,0.20
2023-03-06T00:16:49.673Z,0.30
2023-03-06T00:19:17.294Z,0.30
2023-03-06T00:21:46.924Z,0.30
2023-03-06T00:24:17.810Z,0.30
2023-03-06T00:26:46.973Z,0.30
2023-03-06T00:29:14.715Z,0.30
2023-03-06T00:31:47.284Z,0.30
2023-03-06T00:34:15.392Z,0.30
2023-03-06T00:36:47.165Z,0.30
2023-03-06T00:39:15.065Z,0.30
2023-03-06T00:41:45.389Z,0.30
2023-03-06T00:44:17.056Z,0.30
2023-03-06T00:46:45.328Z,0.30
2023-03-06T00:49:13.984Z,0.30
2023-03-06T00:51:42.039Z,0.30
2023-03-06T00:54:11.668Z,0.30
2023-03-06T00:56:42.780Z,0.40
2023-03-06T00:59:11.671Z,0.40
2023-03-06T01:01:40.690Z,0.50
2023-03-06T01:04:08.612Z,0.50
2023-03-06T01:06:36.986Z,0.50
2023-03-06T01:09:05.772Z,0.60
2023-03-06T01:11:34.700Z,0.60
2023-03-06T01:14:02.792Z,0.60
2023-03-06T01:16:31.284Z,0.80
2023-03-06T01:18:59.407Z,0.80
2023-03-06T01:21:28.774Z,0.80
2023-03-06T01:23:57.105Z,0.70
2023-03-06T01:26:25.402Z,0.60
2023-03-06T01:28:54.112Z,0.60
2023-03-06T01:31:25.493Z,0.60
2023-03-06T01:33:54.500Z,0.60
2023-03-06T01:36:24.578Z,0.60
2023-03-06T01:38:52.269Z,0.60
2023-03-06T01:41:21.941Z,0.60
2023-03-06T01:43:50.588Z,0.60
2023-03-06T01:47:02.535Z,0.70
2023-03-06T01:49:37.907Z,0.70
2023-03-06T01:52:29.450Z,0.80
2023-03-06T01:55:06.000Z,0.80
2023-03-06T01:57:40.533Z,0.80
2023-03-06T02:00:13.258Z,0.80
2023-03-06T02:02:46.577Z,0.80
2023-03-06T02:05:14.685Z,0.80
2023-03-06T02:07:44.636Z,0.80
2023-03-06T02:10:15.120Z,0.80
2023-03-06T02:12:44.862Z,0.80
2023-03-06T02:15:14.695Z,0.80
2023-03-06T02:17:45.914Z,0.80
2023-03-06T02:20:38.905Z,0.80
2023-03-06T02:23:10.729Z,0.80
2023-03-06T02:25:46.110Z,0.90
2023-03-06T02:28:18.909Z,1.00
2023-03-06T02:30:49.291Z,1.00
2023-03-06T02:33:20.530Z,1.00
2023-03-06T02:35:59.546Z,1.00
2023-03-06T02:38:40.616Z,1.00
2023-03-06T02:41:09.855Z,1.00
2023-03-06T02:43:41.212Z,1.00
2023-03-06T02:46:08.965Z,1.00
2023-03-06T02:48:37.209Z,1.00
2023-03-06T02:51:04.972Z,1.00
2023-03-06T02:53:33.676Z,1.00
2023-03-06T02:56:02.403Z,1.00
2023-03-06T02:58:30.607Z,1.00
2023-03-06T03:00:59.902Z,1.00
2023-03-06T03:03:28.765Z,1.00
2023-03-06T03:05:56.590Z,1.00
2023-03-06T03:08:29.958Z,1.00
2023-03-06T03:11:01.349Z,1.00
2023-03-06T03:13:38.103Z,1.00
2023-03-06T03:16:14.405Z,1.00
2023-03-06T03:18:44.907Z,1.00
2023-03-06T03:21:19.573Z,1.00
2023-03-06T03:23:51.670Z,1.00
2023-03-06T03:26:22.079Z,1.00
2023-03-06T03:29:13.681Z,1.00
2023-03-06T03:31:41.588Z,1.00
2023-03-06T03:34:09.610Z,1.00
2023-03-06T03:36:40.287Z,1.00
2023-03-06T03:39:10.811Z,1.00
2023-03-06T03:41:40.259Z,1.00
2023-03-06T03:44:10.621Z,1.00
2023-03-06T03:46:39.207Z,1.00
2023-03-06T03:49:14.181Z,1.00
2023-03-06T03:51:44.808Z,1.00
2023-03-06T03:54:15.579Z,1.00
2023-03-06T03:56:46.345Z,1.00
2023-03-06T03:59:22.287Z,1.00
2023-03-06T04:02:01.513Z,1.00
2023-03-06T04:04:31.105Z,1.00
2023-03-06T04:06:59.213Z,1.00
2023-03-06T04:09:27.546Z,1.00
2023-03-06T04:11:55.665Z,1.00
2023-03-06T04:14:24.183Z,1.00
2023-03-06T04:16:52.221Z,1.00
2023-03-06T04:19:20.313Z,1.00
2023-03-06T04:21:48.123Z,1.00
2023-03-06T04:24:17.132Z,1.00
2023-03-06T04:26:44.951Z,1.00
2023-03-06T04:29:14.155Z,1.00
2023-03-06T04:31:41.903Z,1.00
2023-03-06T04:34:10.221Z,1.00
2023-03-06T04:36:38.855Z,1.00
2023-03-06T04:39:12.896Z,1.00
2023-03-06T04:41:41.824Z,1.00
2023-03-06T04:44:11.120Z,1.00
2023-03-06T04:46:38.974Z,1.00
2023-03-06T04:49:07.829Z,1.00
2023-03-06T04:51:37.235Z,1.00
2023-03-06T04:54:05.861Z,1.00
2023-03-06T04:56:34.929Z,1.00
2023-03-06T04:59:06.044Z,1.00
2023-03-06T05:01:33.871Z,1.00
2023-03-06T05:04:02.246Z,0.90
2023-03-06T05:06:30.030Z,0.90
2023-03-06T05:08:58.626Z,0.90
2023-03-06T05:11:27.453Z,0.90
2023-03-06T05:13:56.524Z,0.90
2023-03-06T05:16:25.290Z,0.90
2023-03-06T05:18:54.489Z,0.90
2023-03-06T05:21:23.400Z,0.90
2023-03-06T05:23:53.903Z,1.00
2023-03-06T05:26:22.828Z,1.00
2023-03-06T05:28:51.160Z,1.00
2023-03-06T05:31:18.912Z,1.00
2023-03-06T05:33:47.256Z,1.00
2023-03-06T05:36:15.907Z,1.00
2023-03-06T05:38:44.345Z,1.00
2023-03-06T05:41:14.374Z,1.00
2023-03-06T05:43:43.047Z,1.00
2023-03-06T05:46:12.708Z,1.00
2023-03-06T05:48:41.460Z,1.00
2023-03-06T05:51:11.240Z,1.00
2023-03-06T05:53:40.770Z,1.00
2023-03-06T05:56:11.896Z,1.00
2023-03-06T05:58:41.329Z,1.10
2023-03-06T06:01:17.881Z,1.10
2023-03-06T06:03:46.629Z,1.10
2023-03-06T06:06:15.610Z,1.20
2023-03-06T06:08:44.450Z,1.20
2023-03-06T06:11:14.289Z,1.10
2023-03-06T06:13:42.609Z,1.20
2023-03-06T06:16:19.444Z,1.20
2023-03-06T06:18:48.539Z,1.20
2023-03-06T06:21:16.701Z,1.20
2023-03-06T06:23:44.786Z,1.30
2023-03-06T06:26:12.495Z,1.40
2023-03-06T06:28:41.659Z,1.40
2023-03-06T06:31:11.540Z,1.40
2023-03-06T06:33:41.488Z,1.40
2023-03-06T06:36:20.609Z,1.50
2023-03-06T06:38:49.924Z,1.50
2023-03-06T06:41:42.277Z,1.60
2023-03-06T06:44:09.079Z,1.60
2023-03-06T06:47:20.695Z,1.70
2023-03-06T06:49:29.697Z,1.80
2023-03-06T06:51:58.694Z,1.80
2023-03-06T06:54:28.244Z,1.90
2023-03-06T06:56:56.160Z,1.90
2023-03-06T06:59:25.757Z,2.10
2023-03-06T07:01:54.167Z,2.20
2023-03-06T07:04:24.295Z,2.30
2023-03-06T07:06:56.357Z,2.40
2023-03-06T07:09:30.272Z,2.50
2023-03-06T07:11:58.568Z,2.60
2023-03-06T07:14:26.821Z,2.70
2023-03-06T07:16:54.618Z,2.80
2023-03-06T07:19:25.328Z,2.90
2023-03-06T07:21:53.699Z,3.00
2023-03-06T07:24:21.985Z,3.10
2023-03-06T07:26:49.971Z,3.10
2023-03-06T07:29:18.906Z,3.30
2023-03-06T07:31:47.335Z,3.50
2023-03-06T07:34:15.966Z,3.70
2023-03-06T07:36:44.912Z,3.90
2023-03-06T07:39:13.006Z,4.10
2023-03-06T07:41:43.908Z,4.30
2023-03-06T07:44:13.582Z,4.40
2023-03-06T07:46:41.459Z,4.50
2023-03-06T07:49:10.015Z,4.80
2023-03-06T07:51:38.222Z,5.00
2023-03-06T07:54:06.811Z,5.10
2023-03-06T07:56:37.550Z,5.30
2023-03-06T07:59:06.076Z,5.70
2023-03-06T08:01:33.889Z,6.00
2023-03-06T08:04:02.646Z,6.20
2023-03-06T08:06:30.651Z,6.30
2023-03-06T08:08:59.901Z,6.20
2023-03-06T08:11:30.994Z,6.10
2023-03-06T08:14:00.108Z,5.90
2023-03-06T08:16:30.507Z,5.80
2023-03-06T08:18:59.399Z,5.80
2023-03-06T08:21:29.415Z,5.80
2023-03-06T08:23:57.718Z,5.80
2023-03-06T08:26:34.944Z,5.60
2023-03-06T08:29:03.959Z,5.70
2023-03-06T08:31:34.733Z,5.70
2023-03-06T08:34:06.974Z,5.80
2023-03-06T08:36:35.744Z,6.10
2023-03-06T08:39:05.439Z,6.40
2023-03-06T08:41:35.029Z,6.50
2023-03-06T08:44:05.059Z,6.50
2023-03-06T08:46:34.333Z,6.50
2023-03-06T08:49:04.118Z,6.70
2023-03-06T08:51:33.658Z,6.80
2023-03-06T08:54:03.361Z,6.80
2023-03-06T08:56:34.093Z,6.70
2023-03-06T08:59:05.331Z,6.70
2023-03-06T09:01:36.986Z,6.60
2023-03-06T09:04:07.968Z,6.60
2023-03-06T09:06:39.635Z,6.90
2023-03-06T09:09:09.524Z,7.40
2023-03-06T09:11:37.772Z,7.80
2023-03-06T09:14:08.250Z,8.00
2023-03-06T09:16:37.676Z,8.00
2023-03-06T09:19:05.968Z,7.90
2023-03-06T09:21:33.928Z,8.00
2023-03-06T09:24:04.777Z,8.30
2023-03-06T09:26:51.679Z,8.60
2023-03-06T09:29:21.699Z,8.80
2023-03-06T09:31:50.723Z,8.70
2023-03-06T09:34:19.331Z,8.40
2023-03-06T09:36:56.872Z,8.00
2023-03-06T09:39:28.166Z,7.60
2023-03-06T09:42:00.418Z,7.60
2023-03-06T09:44:32.526Z,7.50
2023-03-06T09:47:28.376Z,7.80
2023-03-06T09:50:14.907Z,8.50
2023-03-06T09:52:49.917Z,9.20
2023-03-06T09:55:22.646Z,9.70
2023-03-06T09:58:27.834Z,10.10
2023-03-06T10:01:22.973Z,10.40
2023-03-06T10:04:01.404Z,10.60
2023-03-06T10:06:48.338Z,10.50
2023-03-06T10:09:33.397Z,10.00
2023-03-06T10:12:14.411Z,9.80
2023-03-06T10:14:55.165Z,10.10
2023-03-06T10:17:26.428Z,10.30
2023-03-06T10:19:54.337Z,10.20
2023-03-06T10:22:35.532Z,10.50
2023-03-06T10:25:11.720Z,10.50
2023-03-06T10:27:50.051Z,10.00
2023-03-06T10:30:58.230Z,9.60
2023-03-06T10:33:52.583Z,9.20
2023-03-06T10:36:24.854Z,8.80
2023-03-06T10:38:53.447Z,8.20
2023-03-06T10:41:32.291Z,8.00
2023-03-06T10:44:00.732Z,7.80
2023-03-06T10:46:42.654Z,7.50
2023-03-06T10:49:35.476Z,7.20
2023-03-06T10:52:07.293Z,6.70
2023-03-06T10:54:39.953Z,6.40
2023-03-06T10:57:28.917Z,6.10
2023-03-06T11:00:05.983Z,5.90
2023-03-06T11:02:38.801Z,5.80
2023-03-06T11:05:20.045Z,5.70
2023-03-06T11:07:56.625Z,5.50
2023-03-06T11:10:25.290Z,5.50
2023-03-06T11:13:00.359Z,5.50
2023-03-06T11:15:30.155Z,5.40
2023-03-06T11:18:26.282Z,5.10
2023-03-06T11:20:59.119Z,5.00
2023-03-06T11:23:45.094Z,5.10
2023-03-06T11:26:16.767Z,5.20
2023-03-06T11:29:18.997Z,5.20
2023-03-06T11:31:54.933Z,5.00
2023-03-06T11:34:47.661Z,5.00
2023-03-06T11:37:33.277Z,4.90
2023-03-06T11:40:32.336Z,4.70
2023-03-06T11:43:15.036Z,4.50
2023-03-06T11:45:47.770Z,4.40
2023-03-06T11:48:16.242Z,4.30
2023-03-06T11:50:54.429Z,4.30
2023-03-06T11:53:30.009Z,4.50
2023-03-06T11:56:20.692Z,4.80
2023-03-06T11:58:58.280Z,5.10
2023-03-06T12:01:45.473Z,5.30
2023-03-06T12:04:29.466Z,5.30
2023-03-06T12:07:00.394Z,5.30
2023-03-06T12:09:47.824Z,5.10
2023-03-06T12:12:31.027Z,5.10
2023-03-06T12:15:36.605Z,5.00
2023-03-06T12:18:19.651Z,5.00
2023-03-06T12:21:04.835Z,5.10
2023-03-06T12:24:04.457Z,5.30
2023-03-06T12:26:38.550Z,5.30
2023-03-06T12:29:24.365Z,5.50
2023-03-06T12:32:14.705Z,5.50
2023-03-06T12:35:03.077Z,5.70
2023-03-06T12:37:35.464Z,5.70
2023-03-06T12:40:15.819Z,5.50
2023-03-06T12:43:30.464Z,5.60
2023-03-06T12:46:10.971Z,5.60
2023-03-06T12:48:42.331Z,5.70
2023-03-06T12:51:16.926Z,5.60
2023-03-06T12:53:46.771Z,5.70
2023-03-06T12:56:19.528Z,5.70
2023-03-06T12:58:53.793Z,5.80
2023-03-06T13:01:37.693Z,5.80
2023-03-06T13:04:26.982Z,6.00
2023-03-06T13:07:04.083Z,5.90
2023-03-06T13:09:59.027Z,5.80
2023-03-06T13:12:44.842Z,5.70
2023-03-06T13:15:44.172Z,5.50
2023-03-06T13:18:24.203Z,5.30
2023-03-06T13:20:57.887Z,5.50
2023-03-06T13:23:49.499Z,5.60
2023-03-06T13:26:27.051Z,5.90
2023-03-06T13:28:58.382Z,6.20
2023-03-06T13:31:38.417Z,6.20
2023-03-06T13:34:34.098Z,6.00
2023-03-06T13:37:40.126Z,5.80
2023-03-06T13:40:12.295Z,5.70
2023-03-06T13:42:44.483Z,5.80
2023-03-06T13:45:28.042Z,5.80
2023-03-06T13:48:22.595Z,5.90
2023-03-06T13:50:51.681Z,5.80
2023-03-06T13:53:23.827Z,5.70
2023-03-06T13:56:11.988Z,5.60
2023-03-06T13:59:03.555Z,5.60
2023-03-06T14:02:12.197Z,5.60
2023-03-06T14:04:57.966Z,5.70
2023-03-06T14:07:34.382Z,5.80
2023-03-06T14:10:19.160Z,5.80
2023-03-06T14:12:52.402Z,5.80
2023-03-06T14:15:33.662Z,5.80
2023-03-06T14:18:07.563Z,5.80
2023-03-06T14:20:44.402Z,5.70
2023-03-06T14:23:27.773Z,5.60
2023-03-06T14:26:20.578Z,5.50
2023-03-06T14:28:58.733Z,5.50
2023-03-06T14:31:32.093Z,5.30
2023-03-06T14:34:07.148Z,5.00
2023-03-06T14:36:48.227Z,4.90
2023-03-06T14:39:21.311Z,4.70
2023-03-06T14:41:50.160Z,4.50
2023-03-06T14:44:24.218Z,4.50
2023-03-06T14:46:59.961Z,4.40
2023-03-06T14:49:29.342Z,4.30
2023-03-06T14:52:02.851Z,4.30
2023-03-06T14:54:38.034Z,4.30
2023-03-06T14:57:13.190Z,4.30
2023-03-06T15:00:04.962Z,4.40
2023-03-06T15:02:34.196Z,4.40
2023-03-06T15:05:22.298Z,4.40
2023-03-06T15:07:53.209Z,4.40
2023-03-06T15:10:27.911Z,4.40
2023-03-06T15:12:56.597Z,4.40
2023-03-06T15:15:29.424Z,4.40
2023-03-06T15:17:59.520Z,4.50
2023-03-06T15:20:56.272Z,4.50
2023-03-06T15:23:36.408Z,4.50
2023-03-06T15:26:20.487Z,4.30
2023-03-06T15:29:09.896Z,4.30
2023-03-06T15:31:44.625Z,4.40
2023-03-06T15:34:16.637Z,4.50
2023-03-06T15:36:49.265Z,4.50
2023-03-06T15:39:39.267Z,4.50
2023-03-06T15:42:16.634Z,4.40
2023-03-06T15:44:49.247Z,4.20
2023-03-06T15:47:18.127Z,4.10
2023-03-06T15:49:47.100Z,3.90
2023-03-06T15:52:16.215Z,3.70
2023-03-06T15:54:45.248Z,3.60
2023-03-06T15:57:29.913Z,3.50
2023-03-06T16:00:01.838Z,3.50
2023-03-06T16:02:39.758Z,3.30
2023-03-06T16:05:17.410Z,3.30
2023-03-06T16:07:46.016Z,3.20
2023-03-06T16:10:17.872Z,3.10
2023-03-06T16:12:52.476Z,3.10
2023-03-06T16:15:30.726Z,3.10
2023-03-06T16:18:01.216Z,3.10
2023-03-06T16:20:31.235Z,3.10
2023-03-06T16:23:00.002Z,3.00
2023-03-06T16:25:32.819Z,2.90
2023-03-06T16:28:01.265Z,2.90
2023-03-06T16:30:33.462Z,2.90
2023-03-06T16:33:02.644Z,2.90
2023-03-06T16:35:31.794Z,2.80
2023-03-06T16:38:01.342Z,2.80
2023-03-06T16:40:41.592Z,2.70
2023-03-06T16:43:12.536Z,2.70
2023-03-06T16:45:45.049Z,2.70
2023-03-06T16:48:18.742Z,2.60
2023-03-06T16:50:47.240Z,2.50
2023-03-06T16:53:17.107Z,2.50
2023-03-06T16:55:46.376Z,2.50
2023-03-06T16:58:15.758Z,2.50
2023-03-06T17:00:49.876Z,2.50
2023-03-06T17:03:19.506Z,2.50
2023-03-06T17:05:47.998Z,2.60
2023-03-06T17:08:20.816Z,2.70
2023-03-06T17:10:50.575Z,2.70
2023-03-06T17:13:19.067Z,2.70
2023-03-06T17:15:57.413Z,2.70
2023-03-06T17:18:28.524Z,2.70
2023-03-06T17:20:59.318Z,2.80
2023-03-06T17:23:33.388Z,2.80
2023-03-06T17:26:21.526Z,2.80
2023-03-06T17:28:49.758Z,2.80
2023-03-06T17:31:28.709Z,2.80
2023-03-06T17:34:00.877Z,2.80
2023-03-06T17:36:31.175Z,2.80
2023-03-06T17:39:02.445Z,2.80
2023-03-06T17:41:33.573Z,2.80
2023-03-06T17:44:03.181Z,2.70
2023-03-06T17:46:32.502Z,2.50
2023-03-06T17:49:01.085Z,2.40
2023-03-06T17:51:34.152Z,2.30
2023-03-06T17:54:02.710Z,2.20
2023-03-06T17:56:33.872Z,2.10
2023-03-06T17:59:03.550Z,2.00
2023-03-06T18:01:38.079Z,2.00
2023-03-06T18:04:11.918Z,1.90
2023-03-06T18:06:41.967Z,1.70
2023-03-06T18:09:12.200Z,1.60
2023-03-06T18:11:42.320Z,1.50
2023-03-06T18:14:12.227Z,1.50
2023-03-06T18:16:42.520Z,1.40
2023-03-06T18:19:12.655Z,1.40
2023-03-06T18:21:50.299Z,1.30
2023-03-06T18:24:20.875Z,1.10
2023-03-06T18:26:50.779Z,1.10
2023-03-06T18:29:21.863Z,1.00
2023-03-06T18:31:53.968Z,1.00
2023-03-06T18:34:23.557Z,1.00
2023-03-06T18:36:56.068Z,1.00
2023-03-06T18:39:29.061Z,1.00
2023-03-06T18:42:00.010Z,1.00
2023-03-06T18:44:34.143Z,0.90
2023-03-06T18:47:05.724Z,0.80
2023-03-06T18:49:35.031Z,0.80
2023-03-06T18:52:06.014Z,0.80
2023-03-06T18:54:36.247Z,0.80
2023-03-06T18:57:06.848Z,0.80
2023-03-06T18:59:40.268Z,0.80
2023-03-06T19:02:12.436Z,0.80
2023-03-06T19:04:45.556Z,0.80
2023-03-06T19:07:15.360Z,0.90
2023-03-06T19:09:46.952Z,0.90
2023-03-06T19:12:20.691Z,1.00
2023-03-06T19:14:51.232Z,1.00
2023-03-06T19:17:20.541Z,1.00
2023-03-06T19:19:52.673Z,0.80
2023-03-06T19:22:25.586Z,0.90
2023-03-06T19:24:58.523Z,0.90
2023-03-06T19:27:29.234Z,0.90
2023-03-06T19:30:04.145Z,1.00
2023-03-06T19:32:38.936Z,0.90
2023-03-06T19:35:11.722Z,0.90
2023-03-06T19:37:42.740Z,0.90
2023-03-06T19:40:16.579Z,1.00
2023-03-06T19:42:47.378Z,1.00
2023-03-06T19:45:18.926Z,1.00
2023-03-06T19:47:52.530Z,1.10
2023-03-06T19:50:22.139Z,1.10
2023-03-06T19:52:56.658Z,1.10
2023-03-06T19:55:29.049Z,1.10
2023-03-06T19:57:58.070Z,1.00
2023-03-06T20:00:28.822Z,1.00
2023-03-06T20:02:59.803Z,0.80
2023-03-06T20:05:30.599Z,0.80
2023-03-06T20:08:01.232Z,0.80
2023-03-06T20:10:31.055Z,0.80
2023-03-06T20:13:03.023Z,0.70
2023-03-06T20:15:36.505Z,0.70
2023-03-06T20:18:10.025Z,0.60
2023-03-06T20:20:41.122Z,0.60
2023-03-06T20:23:15.115Z,0.60
2023-03-06T20:25:46.063Z,0.60
2023-03-06T20:28:16.811Z,0.60
2023-03-06T20:30:46.720Z,0.60
2023-03-06T20:33:24.257Z,0.70
2023-03-06T20:35:56.128Z,0.70
2023-03-06T20:38:31.063Z,0.80
2023-03-06T20:41:01.722Z,0.80
2023-03-06T20:43:34.658Z,0.80
2023-03-06T20:46:06.975Z,0.80
2023-03-06T20:48:38.991Z,0.80
2023-03-06T20:51:19.323Z,0.80
2023-03-06T20:53:53.059Z,0.90
2023-03-06T20:56:24.627Z,1.00
2023-03-06T20:58:54.655Z,1.00
2023-03-06T21:01:33.644Z,1.00
2023-03-06T21:04:05.294Z,1.00
2023-03-06T21:06:36.077Z,1.00
2023-03-06T21:09:07.083Z,1.00
2023-03-06T21:11:36.745Z,1.10
2023-03-06T21:14:07.375Z,1.00
2023-03-06T21:16:36.894Z,1.00
2023-03-06T21:19:05.720Z,1.00
2023-03-06T21:21:35.513Z,1.00
2023-03-06T21:24:04.448Z,1.00
2023-03-06T21:26:34.675Z,0.90
2023-03-06T21:29:04.324Z,0.90
2023-03-06T21:31:35.278Z,0.90
2023-03-06T21:34:06.531Z,0.90
2023-03-06T21:36:34.918Z,1.00
2023-03-06T21:39:08.920Z,1.00
2023-03-06T21:41:38.495Z,1.00
2023-03-06T21:44:08.102Z,1.00
2023-03-06T21:46:37.849Z,1.00
2023-03-06T21:49:06.939Z,1.00
2023-03-06T21:51:35.964Z,1.00
2023-03-06T21:54:06.231Z,1.00
2023-03-06T21:56:35.992Z,1.00
2023-03-06T21:59:04.111Z,1.10
2023-03-06T22:01:32.366Z,1.10
2023-03-06T22:04:01.165Z,1.10
2023-03-06T22:06:32.594Z,1.10
2023-03-06T22:09:04.669Z,1.10
2023-03-06T22:11:37.396Z,1.10
2023-03-06T22:14:06.773Z,1.10
2023-03-06T22:16:34.524Z,1.10
2023-03-06T22:19:04.217Z,1.10
2023-03-06T22:21:32.140Z,1.10
2023-03-06T22:24:01.845Z,1.10
2023-03-06T22:26:30.475Z,1.10
2023-03-06T22:28:59.064Z,1.20
2023-03-06T22:31:30.670Z,1.20
2023-03-06T22:34:00.816Z,1.20
2023-03-06T22:36:33.414Z,1.20
2023-03-06T22:39:06.284Z,1.20
2023-03-06T22:41:37.850Z,1.10
2023-03-06T22:44:07.819Z,1.10
2023-03-06T22:46:36.460Z,1.10
2023-03-06T22:49:05.277Z,1.10
2023-03-06T22:51:33.024Z,1.10
2023-03-06T22:54:01.267Z,1.10
2023-03-06T22:56:31.213Z,1.20
2023-03-06T22:59:00.438Z,1.20
2023-03-06T23:01:32.916Z,1.10
2023-03-06T23:04:11.471Z,1.10
2023-03-06T23:06:41.708Z,1.20
2023-03-06T23:09:13.991Z,1.10
2023-03-06T23:12:00.501Z,1.10
2023-03-06T23:14:51.362Z,1.20
2023-03-06T23:17:37.749Z,1.20
2023-03-06T23:20:24.674Z,1.20
2023-03-06T23:23:13.126Z,1.20
2023-03-06T23:25:44.859Z,1.20
2023-03-06T23:28:12.893Z,1.20
2023-03-06T23:30:42.022Z,1.20
2023-03-06T23:33:11.092Z,1.10
2023-03-06T23:35:41.729Z,1.00
2023-03-06T23:38:10.930Z,1.00
2023-03-06T23:40:43.746Z,1.00
2023-03-06T23:43:11.425Z,0.90
2023-03-06T23:45:42.804Z,0.90
2023-03-06T23:48:12.967Z,0.80
2023-03-06T23:50:41.486Z,0.80
2023-03-06T23:53:12.346Z,0.80
2023-03-06T23:55:42.844Z,0.60
2023-03-06T23:58:11.277Z,0.60
